Terminal Aerodrome Forecast
Issued by NWS

Home | Current Version | Previous Version | Graphics & Text | Print | Product List | Glossary On
Versions: 1 2 3 4 5 6 7 8 9 10 11 12 13 14 15 16 17 18 19 20 21 22 23 24 25
000
FTUS43 KBIS 222320
TAFJMS
TAF
KJMS 222320Z 2300/2324 18014G23KT P6SM VCTS BKN070CB
     FM230300 18008KT 6SM TSRA OVC080CB
     FM230600 19007KT P6SM -SHRA VCTS OVC040CB
     FM231000 28006KT P6SM -SHRA BKN040 OVC100
     FM231300 27008KT P6SM SCT060=

USA.gov is the U.S. government's official web portal to all federal, state and local government web resources and services.